Time;durP1;ratioP1;P1;durP2;ratioP2;P2;SDS_P1;SDS_P2;PMS_P1;PMS_P2;Temp;Humidity;BMP_temperature;BMP_pressure;BME280_temperature;BME280_humidity;BME280_pressure;Samples;Min_cycle;Max_cycle;Signal;HPM_P1;HPM_P2
2021/12/04 00:01:12;;;;;;;7.45;3.00;;;4.20;99.90;;;;;;4992733;28;20445;-55
2021/12/04 00:03:41;;;;;;;5.82;2.30;;;4.20;99.90;;;;;;4993504;28;20414;-54
2021/12/04 00:06:23;;;;;;;7.55;2.80;;;4.20;99.90;;;;;;4992618;28;20399;-57
2021/12/04 00:08:49;;;;;;;7.32;2.90;;;5.20;99.90;;;;;;4993361;28;20868;-54
2021/12/04 00:11:15;;;;;;;7.03;2.60;;;4.20;99.90;;;;;;4992541;28;20390;-55
2021/12/04 00:13:42;;;;;;;6.15;2.67;;;4.20;99.90;;;;;;4993154;28;20399;-55
2021/12/04 00:16:08;;;;;;;7.32;2.67;;;4.20;99.90;;;;;;4992429;28;20405;-55
2021/12/04 00:18:33;;;;;;;6.70;2.80;;;4.20;99.90;;;;;;4993359;28;20752;-55
2021/12/04 00:20:59;;;;;;;6.37;2.60;;;4.20;99.90;;;;;;4992831;28;20449;-54
2021/12/04 00:23:25;;;;;;;8.10;2.70;;;4.20;99.90;;;;;;4992156;28;20394;-55
2021/12/04 00:25:50;;;;;;;6.73;2.73;;;4.20;99.90;;;;;;4993048;28;20390;-55
2021/12/04 00:28:16;;;;;;;6.80;2.70;;;4.30;99.90;;;;;;4990884;28;20394;-55
2021/12/04 00:30:43;;;;;;;6.53;2.80;;;4.30;99.90;;;;;;4993010;28;20406;-55
2021/12/04 00:33:16;;;;;;;8.60;3.10;;;4.30;99.90;;;;;;4991891;28;20795;-55
2021/12/04 00:35:52;;;;;;;10.70;3.10;;;4.40;99.90;;;;;;4991642;28;20407;-54
2021/12/04 00:49:19;;;;;;;6.93;2.80;;;4.40;99.90;;;;;;4991913;28;20529;-54
2021/12/04 00:51:53;;;;;;;8.27;3.17;;;4.40;99.90;;;;;;4992542;28;20386;-54
2021/12/04 00:54:19;;;;;;;7.10;2.88;;;4.40;99.90;;;;;;4992208;28;20409;-54
2021/12/04 00:56:45;;;;;;;6.65;3.10;;;4.30;99.90;;;;;;4992533;28;20426;-55
2021/12/04 00:59:13;;;;;;;7.87;2.90;;;5.10;99.90;;;;;;4991729;28;20391;-55
2021/12/04 01:01:40;;;;;;;7.80;3.08;;;4.30;99.90;;;;;;4992334;28;20473;-54
2021/12/04 01:04:11;;;;;;;6.68;3.03;;;4.80;99.90;;;;;;4991989;28;20405;-62
2021/12/04 01:06:37;;;;;;;8.80;3.20;;;4.60;99.90;;;;;;4975035;28;20394;-55
2021/12/04 01:09:06;;;;;;;7.55;3.00;;;4.50;99.90;;;;;;4992252;28;20402;-60
2021/12/04 01:11:32;;;;;;;6.32;2.85;;;4.50;99.90;;;;;;4992074;28;20383;-55
2021/12/04 01:13:58;;;;;;;7.10;2.80;;;4.50;99.90;;;;;;4992321;28;20386;-56
2021/12/04 01:16:23;;;;;;;7.60;2.90;;;4.40;99.90;;;;;;4991431;28;20394;-55
2021/12/04 01:18:49;;;;;;;6.80;2.88;;;4.40;99.90;;;;;;4992214;28;20391;-61
2021/12/04 01:21:15;;;;;;;9.00;3.72;;;4.40;99.90;;;;;;4991405;28;20771;-55
2021/12/04 01:23:40;;;;;;;7.10;2.60;;;4.50;99.90;;;;;;4990780;28;20886;-56
2021/12/04 01:26:06;;;;;;;8.40;3.20;;;4.40;99.90;;;;;;4991643;28;21385;-63
2021/12/04 01:28:32;;;;;;;5.67;2.60;;;4.40;99.90;;;;;;4991464;28;20398;-55
2021/12/04 01:30:58;;;;;;;6.40;2.70;;;4.50;99.90;;;;;;4991911;28;20436;-55
2021/12/04 01:33:23;;;;;;;7.13;2.90;;;4.50;99.90;;;;;;4990977;28;20638;-55
2021/12/04 01:35:49;;;;;;;6.55;2.80;;;4.40;99.90;;;;;;4990324;28;20405;-55
2021/12/04 01:38:15;;;;;;;7.30;3.00;;;4.40;99.90;;;;;;4990976;28;20410;-55
2021/12/04 01:40:43;;;;;;;6.63;2.50;;;4.30;99.90;;;;;;4991876;28;20399;-55
2021/12/04 01:43:09;;;;;;;7.10;3.15;;;4.30;99.90;;;;;;4990784;28;20394;-62
2021/12/04 01:45:34;;;;;;;7.15;3.30;;;4.30;99.90;;;;;;4989815;28;20422;-55
2021/12/04 01:48:02;;;;;;;8.80;3.20;;;4.40;99.90;;;;;;4991731;28;20398;-56
2021/12/04 01:50:30;;;;;;;7.43;3.25;;;4.40;99.90;;;;;;4990602;28;20593;-56
2021/12/04 01:52:59;;;;;;;6.77;2.73;;;4.40;99.90;;;;;;4991240;28;20438;-57
2021/12/04 01:55:32;;;;;;;7.25;3.35;;;4.50;99.90;;;;;;4989908;28;20379;-56
2021/12/04 01:58:01;;;;;;;8.77;3.73;;;4.50;99.90;;;;;;4990806;28;20414;-53
2021/12/04 02:00:31;;;;;;;9.73;3.30;;;4.60;99.90;;;;;;4989236;28;20406;-54
2021/12/04 02:02:57;;;;;;;8.75;3.30;;;4.50;99.90;;;;;;4991149;28;21123;-54
2021/12/04 02:05:23;;;;;;;8.90;3.80;;;4.50;99.90;;;;;;4989266;28;20383;-56
2021/12/04 02:07:49;;;;;;;5.90;2.63;;;4.50;99.90;;;;;;4990310;28;20394;-54
2021/12/04 02:10:15;;;;;;;6.00;2.20;;;4.70;99.90;;;;;;4990308;28;20788;-54
2021/12/04 02:12:41;;;;;;;7.20;2.30;;;4.40;99.90;;;;;;4991231;28;20393;-54
2021/12/04 02:15:11;;;;;;;6.20;2.78;;;4.40;99.90;;;;;;4990382;28;20383;-62
2021/12/04 02:17:36;;;;;;;6.18;2.30;;;4.30;99.90;;;;;;4990906;28;20414;-54
2021/12/04 02:20:08;;;;;;;5.50;2.20;;;4.40;99.90;;;;;;4990879;28;20409;-55
2021/12/04 02:22:33;;;;;;;6.50;2.83;;;4.50;99.90;;;;;;4990774;28;20401;-56
2021/12/04 02:24:59;;;;;;;8.00;2.90;;;4.60;99.90;;;;;;4990540;28;20753;-54
2021/12/04 02:27:25;;;;;;;6.50;2.90;;;4.50;99.90;;;;;;4988452;28;21043;-55
2021/12/04 02:29:50;;;;;;;8.15;3.45;;;4.50;99.90;;;;;;4990819;28;20383;-55
2021/12/04 02:32:19;;;;;;;8.07;3.60;;;4.50;99.90;;;;;;4989857;28;20891;-54
2021/12/04 02:34:45;;;;;;;7.63;3.50;;;4.60;99.90;;;;;;4990489;28;20391;-54
2021/12/04 02:37:10;;;;;;;8.00;3.17;;;4.50;99.90;;;;;;4989580;28;20509;-55
2021/12/04 02:39:38;;;;;;;7.20;3.50;;;4.60;99.90;;;;;;4990216;28;20402;-54
2021/12/04 02:42:06;;;;;;;7.68;3.40;;;4.60;99.90;;;;;;4990574;28;20403;-54
2021/12/04 02:44:38;;;;;;;9.68;3.60;;;4.50;99.90;;;;;;4988565;28;20390;-54
2021/12/04 02:47:05;;;;;;;9.88;3.70;;;4.60;99.90;;;;;;4989952;28;20505;-55
2021/12/04 02:49:31;;;;;;;8.25;3.45;;;4.50;99.90;;;;;;4989801;28;20387;-54
2021/12/04 02:52:07;;;;;;;8.60;3.60;;;4.50;99.90;;;;;;4990358;28;20386;-54
2021/12/04 02:54:33;;;;;;;6.80;3.47;;;4.60;99.90;;;;;;4990035;28;20469;-54
2021/12/04 02:57:00;;;;;;;6.90;2.97;;;4.60;99.90;;;;;;4990015;28;20941;-54
2021/12/04 02:59:26;;;;;;;7.70;3.40;;;4.60;99.90;;;;;;4989433;28;20383;-55
2021/12/04 03:01:56;;;;;;;9.75;3.35;;;4.60;99.90;;;;;;4990150;28;20456;-56
2021/12/04 03:04:26;;;;;;;6.65;3.08;;;4.60;99.90;;;;;;4989594;28;20418;-54
2021/12/04 03:06:52;;;;;;;8.00;3.20;;;4.60;99.90;;;;;;4990082;28;20474;-56
2021/12/04 03:09:18;;;;;;;7.17;3.37;;;4.50;99.90;;;;;;4989492;28;20449;-54
2021/12/04 03:11:44;;;;;;;8.43;3.30;;;4.50;99.90;;;;;;4990030;28;20464;-54
2021/12/04 03:14:10;;;;;;;7.72;3.20;;;4.40;99.90;;;;;;4989572;28;20431;-62
2021/12/04 03:16:38;;;;;;;9.90;3.50;;;4.40;99.90;;;;;;4990467;28;20402;-54
2021/12/04 03:19:04;;;;;;;8.13;3.63;;;4.40;99.90;;;;;;4990023;28;20413;-54
2021/12/04 03:21:31;;;;;;;8.20;3.60;;;4.30;99.90;;;;;;4989279;28;21344;-54
2021/12/04 03:24:08;;;;;;;7.40;3.05;;;4.30;99.90;;;;;;4990140;28;20386;-54
2021/12/04 03:26:36;;;;;;;8.30;3.95;;;4.30;99.90;;;;;;4988579;28;20434;-54
2021/12/04 03:29:05;;;;;;;9.35;4.60;;;4.30;99.90;;;;;;4989779;28;20749;-54
2021/12/04 03:31:47;;;;;;;10.73;4.80;;;4.20;99.90;;;;;;4989546;28;20464;-54
2021/12/04 03:42:26;;;;;;;9.60;4.93;;;3.80;99.90;;;;;;4989102;28;20386;-54
2021/12/04 03:44:52;;;;;;;10.63;5.45;;;3.90;99.90;;;;;;4988300;28;20469;-54
2021/12/04 03:47:20;;;;;;;12.07;5.30;;;3.90;99.90;;;;;;4988069;28;20647;-54
2021/12/04 03:49:46;;;;;;;11.35;5.38;;;3.80;99.90;;;;;;4990216;28;20399;-54
2021/12/04 03:52:12;;;;;;;10.18;5.28;;;4.90;99.90;;;;;;4989139;28;20391;-56
2021/12/04 03:54:38;;;;;;;9.65;5.30;;;3.90;99.90;;;;;;4989797;28;20386;-54
2021/12/04 03:57:05;;;;;;;10.95;5.50;;;3.90;99.90;;;;;;4989422;28;21046;-54
2021/12/04 03:59:36;;;;;;;9.73;5.10;;;3.90;99.90;;;;;;4989165;28;20393;-54
2021/12/04 04:02:05;;;;;;;11.75;5.40;;;3.80;99.90;;;;;;4989720;28;20386;-58
2021/12/04 04:04:31;;;;;;;11.65;5.05;;;3.80;99.90;;;;;;4988664;28;20443;-54
2021/12/04 04:06:59;;;;;;;10.60;5.45;;;4.10;99.90;;;;;;4989574;28;20933;-54
2021/12/04 04:09:26;;;;;;;13.23;6.10;;;4.00;99.90;;;;;;4988930;28;20504;-54
2021/12/04 04:11:51;;;;;;;12.32;5.93;;;4.00;99.90;;;;;;4989670;28;20378;-54
2021/12/04 04:14:17;;;;;;;10.90;6.10;;;3.90;99.90;;;;;;4989240;28;20394;-54
2021/12/04 04:16:43;;;;;;;12.45;6.53;;;4.00;99.90;;;;;;4989761;28;20876;-54
2021/12/04 04:19:10;;;;;;;12.40;6.40;;;3.90;99.90;;;;;;4990182;28;20845;-60
2021/12/04 04:21:41;;;;;;;12.60;6.28;;;3.90;99.90;;;;;;4992645;28;20796;-54
2021/12/04 04:24:13;;;;;;;12.57;6.07;;;3.90;99.90;;;;;;4992045;28;20397;-54
2021/12/04 04:26:40;;;;;;;12.35;6.40;;;4.00;99.90;;;;;;4992791;28;20426;-54
2021/12/04 04:29:08;;;;;;;12.10;6.03;;;3.90;99.90;;;;;;4992900;28;20383;-54
2021/12/04 04:31:35;;;;;;;10.88;6.32;;;3.90;99.90;;;;;;4992871;28;20390;-54
2021/12/04 04:34:03;;;;;;;13.98;7.20;;;3.90;99.90;;;;;;4992560;28;20418;-54
2021/12/04 05:11:42;;;;;;;15.63;8.63;;;4.70;99.90;;;;;;4991962;28;20911;-58
2021/12/04 05:14:09;;;;;;;13.03;7.57;;;4.00;99.90;;;;;;4991902;28;20498;-55
2021/12/04 05:16:44;;;;;;;13.70;8.18;;;4.50;99.90;;;;;;4990963;28;20872;-55
2021/12/04 05:19:25;;;;;;;16.52;7.90;;;4.20;99.90;;;;;;4991975;28;20923;-62
2021/12/04 05:21:51;;;;;;;14.65;7.90;;;4.00;99.90;;;;;;4992074;28;20528;-54
2021/12/04 05:24:16;;;;;;;15.03;7.70;;;4.90;99.90;;;;;;4991287;28;20374;-54
2021/12/04 05:26:42;;;;;;;14.00;7.45;;;4.40;99.90;;;;;;4991519;28;20386;-54
2021/12/04 05:29:08;;;;;;;13.37;7.23;;;4.10;99.90;;;;;;4991829;28;20386;-54
2021/12/04 05:31:33;;;;;;;11.40;6.72;;;4.10;99.90;;;;;;4989825;28;20777;-55
2021/12/04 05:33:59;;;;;;;13.70;6.68;;;4.20;99.90;;;;;;4992023;28;20752;-54
2021/12/04 05:36:25;;;;;;;12.70;7.17;;;4.20;99.90;;;;;;4991055;28;20464;-54
2021/12/04 05:38:57;;;;;;;15.95;7.50;;;4.20;99.90;;;;;;4991196;28;20891;-54
2021/12/04 05:41:24;;;;;;;11.98;6.68;;;4.30;99.90;;;;;;4990880;28;20398;-54
2021/12/04 05:43:50;;;;;;;14.02;6.70;;;4.30;99.90;;;;;;4991208;28;20387;-54
2021/12/04 05:46:18;;;;;;;12.85;6.80;;;4.30;99.90;;;;;;4990527;28;20464;-55
2021/12/04 05:48:53;;;;;;;13.88;7.28;;;4.40;99.90;;;;;;4991141;28;20402;-55
2021/12/04 05:56:48;;;;;;;14.75;7.15;;;4.30;99.90;;;;;;4990860;28;20564;-60
2021/12/04 05:59:13;;;;;;;13.55;7.47;;;4.40;99.90;;;;;;4990633;28;20477;-61
2021/12/04 06:01:40;;;;;;;16.13;7.90;;;4.30;99.90;;;;;;4990961;28;20426;-54
2021/12/04 06:04:05;;;;;;;15.43;8.23;;;4.40;99.90;;;;;;4991075;28;20418;-54
2021/12/04 06:06:31;;;;;;;16.53;7.73;;;4.30;99.90;;;;;;4990200;28;21037;-54
2021/12/04 06:08:57;;;;;;;14.80;7.68;;;4.30;99.90;;;;;;4991048;28;20729;-54
2021/12/04 06:11:22;;;;;;;15.97;8.00;;;4.30;99.90;;;;;;4990302;28;20390;-55
2021/12/04 06:13:48;;;;;;;15.88;7.60;;;4.30;99.90;;;;;;4990946;28;20860;-53
2021/12/04 06:16:15;;;;;;;15.65;7.70;;;4.30;99.90;;;;;;4990140;28;20481;-61
2021/12/04 06:18:41;;;;;;;14.85;8.10;;;4.20;99.90;;;;;;4984510;28;20419;-54
2021/12/04 06:23:52;;;;;;;14.00;8.10;;;4.30;99.90;;;;;;4979612;28;20469;-55
2021/12/04 06:26:18;;;;;;;16.40;8.60;;;4.20;99.90;;;;;;4986379;28;20884;-54
2021/12/04 06:28:44;;;;;;;13.98;7.95;;;4.30;99.90;;;;;;4983384;28;20421;-60
2021/12/04 06:31:10;;;;;;;14.75;8.60;;;4.30;99.90;;;;;;4979333;28;20443;-55
2021/12/04 06:33:38;;;;;;;14.55;8.18;;;5.20;99.90;;;;;;4984121;28;20418;-60
2021/12/04 06:36:04;;;;;;;13.13;7.88;;;4.30;99.90;;;;;;4982066;28;20433;-54
2021/12/04 06:38:30;;;;;;;13.53;8.43;;;4.20;99.90;;;;;;4981470;28;20459;-55
2021/12/04 06:40:56;;;;;;;14.70;9.00;;;4.20;99.90;;;;;;4981680;28;20454;-55
2021/12/04 06:43:21;;;;;;;17.73;9.70;;;4.20;99.90;;;;;;4974459;28;20440;-55
2021/12/04 06:45:57;;;;;;;17.33;9.10;;;4.10;99.90;;;;;;4971587;28;20418;-55
2021/12/04 06:48:25;;;;;;;19.15;8.75;;;4.20;99.90;;;;;;4976717;28;20426;-54
2021/12/04 06:50:59;;;;;;;13.60;7.68;;;4.10;99.90;;;;;;4978115;28;20483;-57
2021/12/04 06:53:48;;;;;;;14.75;8.10;;;4.10;99.90;;;;;;4970479;28;20392;-55
2021/12/04 06:56:13;;;;;;;15.90;7.60;;;4.20;99.90;;;;;;4980024;28;20403;-61
2021/12/04 06:58:40;;;;;;;17.15;8.75;;;4.20;99.90;;;;;;4985954;28;20425;-56
2021/12/04 07:01:07;;;;;;;16.85;8.45;;;4.20;99.90;;;;;;4988430;28;20398;-56
2021/12/04 07:03:33;;;;;;;17.08;7.97;;;4.30;99.90;;;;;;4983897;28;20405;-59
2021/12/04 07:05:59;;;;;;;15.30;8.20;;;4.30;99.90;;;;;;4976394;28;20410;-55
2021/12/04 07:08:25;;;;;;;16.30;7.90;;;4.40;99.90;;;;;;4986305;28;20410;-57
2021/12/04 07:10:51;;;;;;;18.10;8.40;;;4.50;99.90;;;;;;4984303;28;20482;-55
2021/12/04 07:13:17;;;;;;;17.85;9.60;;;4.40;99.90;;;;;;4984970;28;20494;-56
2021/12/04 07:15:45;;;;;;;16.63;9.35;;;4.40;99.90;;;;;;4987420;28;20409;-55
2021/12/04 07:18:11;;;;;;;16.30;8.68;;;4.40;99.90;;;;;;4988153;28;20461;-60
2021/12/04 07:20:37;;;;;;;16.40;9.10;;;4.40;99.90;;;;;;4985736;28;20430;-55
2021/12/04 07:23:03;;;;;;;18.17;8.70;;;4.40;99.90;;;;;;4986345;28;20486;-54
2021/12/04 07:25:28;;;;;;;16.23;8.20;;;4.40;99.90;;;;;;4986035;28;20441;-55
2021/12/04 07:27:54;;;;;;;15.35;8.82;;;4.50;99.90;;;;;;4984466;28;20420;-55
2021/12/04 07:30:21;;;;;;;17.88;8.55;;;4.60;99.90;;;;;;4987299;28;20398;-55
2021/12/04 07:32:47;;;;;;;18.58;8.70;;;4.70;99.90;;;;;;4983328;28;20900;-54
2021/12/04 07:35:14;;;;;;;16.70;8.10;;;4.70;99.90;;;;;;4984627;28;20839;-61
2021/12/04 07:37:40;;;;;;;14.53;8.10;;;4.70;99.90;;;;;;4986992;28;20406;-55
2021/12/04 07:40:07;;;;;;;17.10;8.18;;;4.80;99.90;;;;;;4986182;28;20502;-55
2021/12/04 07:42:32;;;;;;;12.63;7.50;;;4.90;99.90;;;;;;4985860;28;20465;-55
2021/12/04 07:44:59;;;;;;;13.98;7.75;;;4.90;99.90;;;;;;4987001;28;20427;-60
2021/12/04 07:47:25;;;;;;;13.95;7.60;;;5.00;99.90;;;;;;4983572;28;20419;-54
2021/12/04 07:49:51;;;;;;;16.80;7.80;;;5.00;99.90;;;;;;4983713;28;20399;-54
2021/12/04 07:52:17;;;;;;;15.20;8.00;;;4.90;99.90;;;;;;4987373;28;20405;-61
2021/12/04 07:54:42;;;;;;;13.80;7.70;;;5.00;99.90;;;;;;4986308;28;20405;-57
2021/12/04 07:57:08;;;;;;;17.17;7.50;;;5.10;99.90;;;;;;4991056;28;20496;-55
2021/12/04 07:59:34;;;;;;;13.82;7.90;;;5.00;99.90;;;;;;4991910;28;20394;-55
2021/12/04 08:02:00;;;;;;;17.25;7.68;;;5.00;99.90;;;;;;4992725;28;20386;-54
2021/12/04 08:04:27;;;;;;;14.20;7.30;;;5.40;99.90;;;;;;4991617;28;20394;-54
2021/12/04 08:06:54;;;;;;;12.65;7.03;;;5.10;99.90;;;;;;4981420;28;20870;-56
2021/12/04 08:09:20;;;;;;;17.25;7.90;;;5.20;99.90;;;;;;4979431;28;20464;-54
2021/12/04 08:11:46;;;;;;;12.95;7.18;;;5.20;99.90;;;;;;4983825;28;20394;-55
2021/12/04 08:14:12;;;;;;;15.85;7.40;;;5.20;99.90;;;;;;4976595;28;20487;-60
2021/12/04 08:16:38;;;;;;;13.00;6.90;;;5.30;99.90;;;;;;4989667;28;20764;-56
2021/12/04 08:19:04;;;;;;;12.93;7.10;;;5.40;99.90;;;;;;4984445;28;20412;-57
2021/12/04 08:21:30;;;;;;;13.90;6.63;;;5.40;99.90;;;;;;4984166;28;20944;-54
2021/12/04 08:23:56;;;;;;;14.45;7.03;;;5.50;99.90;;;;;;4989527;28;20426;-55
2021/12/04 08:26:22;;;;;;;12.77;6.65;;;5.50;99.90;;;;;;4983507;28;20486;-56
2021/12/04 08:28:48;;;;;;;11.50;6.20;;;5.60;99.90;;;;;;4990805;28;20465;-53
2021/12/04 08:31:14;;;;;;;12.10;6.40;;;5.70;99.90;;;;;;4988977;28;20417;-61
2021/12/04 08:33:40;;;;;;;13.37;6.20;;;5.70;99.90;;;;;;4989214;28;20474;-54
2021/12/04 08:36:06;;;;;;;10.87;5.70;;;5.80;99.90;;;;;;4987904;28;20477;-54
2021/12/04 08:38:35;;;;;;;12.85;5.30;;;5.90;99.90;;;;;;4989703;28;20884;-53
2021/12/04 08:41:03;;;;;;;12.45;6.00;;;5.90;99.90;;;;;;4986296;28;20485;-51
2021/12/04 08:43:29;;;;;;;11.30;5.00;;;6.00;99.90;;;;;;4989174;28;20469;-52
2021/12/04 08:45:56;;;;;;;12.10;4.82;;;6.10;99.90;;;;;;4987731;28;21011;-54
2021/12/04 08:48:22;;;;;;;9.67;5.10;;;6.10;99.90;;;;;;4987235;28;20441;-52
2021/12/04 08:50:48;;;;;;;11.18;5.05;;;6.30;99.90;;;;;;4989790;28;20896;-52
2021/12/04 08:53:14;;;;;;;10.48;4.68;;;6.30;99.90;;;;;;4989015;28;20374;-58
2021/12/04 08:55:42;;;;;;;11.57;4.63;;;6.50;99.90;;;;;;4989414;28;20403;-55
2021/12/04 08:58:09;;;;;;;14.57;4.63;;;6.60;99.90;;;;;;4990569;28;20498;-52
2021/12/04 09:00:48;;;;;;;9.60;4.57;;;6.60;99.90;;;;;;4989368;28;20468;-53
2021/12/04 09:03:13;;;;;;;9.57;4.25;;;6.70;99.90;;;;;;4990271;28;20391;-52
2021/12/04 09:05:39;;;;;;;9.60;4.97;;;6.70;99.90;;;;;;4989763;28;20462;-53
2021/12/04 09:08:07;;;;;;;8.48;4.03;;;6.70;99.90;;;;;;4990202;28;20792;-52
2021/12/04 09:10:33;;;;;;;8.45;4.00;;;6.70;99.90;;;;;;4989497;28;20409;-52
2021/12/04 09:12:59;;;;;;;10.70;4.10;;;6.80;99.90;;;;;;4989523;28;20764;-53
2021/12/04 09:15:28;;;;;;;8.40;3.78;;;6.80;99.90;;;;;;4989224;28;20421;-52
2021/12/04 09:17:53;;;;;;;8.40;3.88;;;6.90;99.90;;;;;;4989416;28;20888;-52
2021/12/04 09:20:19;;;;;;;11.50;3.90;;;7.00;99.90;;;;;;4989223;28;20402;-53
2021/12/04 09:22:46;;;;;;;10.70;4.33;;;7.00;99.90;;;;;;4990150;28;20391;-52
2021/12/04 09:25:17;;;;;;;8.63;3.63;;;7.10;99.90;;;;;;4989392;28;21611;-53
2021/12/04 09:33:15;;;;;;;8.50;3.70;;;7.40;99.90;;;;;;4989046;28;20387;-51
2021/12/04 09:36:03;;;;;;;9.00;3.83;;;7.40;99.90;;;;;;4987561;28;20651;-52
2021/12/04 10:03:15;;;;;;;6.97;2.90;;;8.10;99.90;;;;;;4987411;28;21652;-53
2021/12/04 10:19:47;;;;;;;8.77;2.60;;;8.40;99.90;;;;;;4988200;28;20399;-51
2021/12/04 10:33:47;;;;;;;85.13;38.27;;;8.90;99.90;;;;;;4987657;28;20421;-53
2021/12/04 10:36:31;;;;;;;21.15;10.52;;;9.00;99.90;;;;;;4987073;28;20397;-55
2021/12/04 10:38:58;;;;;;;78.28;34.65;;;8.90;99.90;;;;;;4980118;28;20410;-54
2021/12/04 10:41:32;;;;;;;59.60;31.90;;;9.00;99.90;;;;;;4984068;28;20417;-53
2021/12/04 10:44:15;;;;;;;19.40;12.20;;;8.90;99.90;;;;;;4988972;28;20394;-54
2021/12/04 10:46:56;;;;;;;8.80;6.50;;;9.10;99.90;;;;;;4974098;28;20465;-55
2021/12/04 10:50:02;;;;;;;16.70;10.65;;;9.20;99.90;;;;;;4986122;28;20430;-53
2021/12/04 10:55:28;;;;;;;11.55;7.25;;;9.60;99.90;;;;;;4983225;28;20406;-55
2021/12/04 11:01:25;;;;;;;9.65;6.32;;;9.70;99.90;;;;;;4978291;28;20476;-56
2021/12/04 11:44:57;;;;;;;11.18;4.75;;;10.10;99.90;;;;;;4986678;28;20875;-53
2021/12/04 11:47:34;;;;;;;22.63;12.32;;;10.20;99.90;;;;;;4989432;28;20402;-55
2021/12/04 11:50:00;;;;;;;7.55;4.65;;;10.20;99.90;;;;;;4991231;28;20437;-54
2021/12/04 11:52:25;;;;;;;7.73;3.20;;;10.10;99.90;;;;;;4990783;28;20406;-55
2021/12/04 11:54:57;;;;;;;19.20;9.73;;;10.00;99.90;;;;;;4989868;28;20398;-54
2021/12/04 11:57:34;;;;;;;32.10;17.02;;;10.00;99.90;;;;;;4987351;28;20426;-54
2021/12/04 12:00:17;;;;;;;10.50;5.55;;;10.00;99.90;;;;;;4986098;28;20415;-55
2021/12/04 12:02:44;;;;;;;4.72;2.08;;;10.00;99.90;;;;;;4987633;28;20409;-54
2021/12/04 12:05:17;;;;;;;49.75;25.42;;;10.00;99.90;;;;;;4989348;28;20414;-54
2021/12/04 12:07:56;;;;;;;11.73;5.70;;;10.00;99.90;;;;;;4984704;28;20476;-54
2021/12/04 12:10:26;;;;;;;25.38;11.43;;;10.20;99.90;;;;;;4988655;28;20399;-58
2021/12/04 12:13:03;;;;;;;20.38;9.07;;;10.10;99.90;;;;;;4977435;28;20499;-55
2021/12/04 12:15:34;;;;;;;11.73;4.60;;;10.10;99.90;;;;;;4977569;28;20829;-56
2021/12/04 12:18:15;;;;;;;34.67;16.40;;;10.20;99.90;;;;;;4980368;28;20423;-54
2021/12/04 12:21:04;;;;;;;32.65;15.88;;;10.20;99.90;;;;;;4987869;28;20394;-56
2021/12/04 12:23:32;;;;;;;19.45;9.48;;;10.30;99.90;;;;;;4987609;28;20481;-55
2021/12/04 12:26:16;;;;;;;5.70;1.70;;;10.40;99.90;;;;;;4987093;28;20403;-56
2021/12/04 12:37:15;;;;;;;4.30;1.10;;;10.00;99.90;;;;;;4954021;28;20939;-54
2021/12/04 12:40:12;;;;;;;4.70;1.10;;;10.10;99.90;;;;;;4980571;28;20431;-54
2021/12/04 12:42:41;;;;;;;4.20;0.98;;;10.30;99.90;;;;;;4967193;28;20412;-55
2021/12/04 12:45:24;;;;;;;3.40;0.70;;;10.20;99.90;;;;;;4980821;28;20913;-55
2021/12/04 12:48:03;;;;;;;3.70;0.70;;;10.10;99.90;;;;;;4991047;28;20942;-54
2021/12/04 12:50:34;;;;;;;3.40;0.70;;;10.20;99.90;;;;;;4989542;28;20849;-54
2021/12/04 12:53:16;;;;;;;8.15;3.28;;;10.10;99.90;;;;;;4980335;28;20483;-56
2021/12/04 12:55:44;;;;;;;40.65;13.02;;;10.10;99.90;;;;;;4987741;28;20509;-54
2021/12/04 12:58:29;;;;;;;142.18;40.35;;;10.10;99.90;;;;;;4989688;28;20422;-54
2021/12/04 13:12:11;;;;;;;44.35;20.13;;;10.40;99.90;;;;;;4982360;28;20421;-57
2021/12/04 13:14:49;;;;;;;15.80;6.70;;;10.40;99.90;;;;;;4984654;28;20460;-55
2021/12/04 13:17:22;;;;;;;8.63;4.20;;;10.40;99.90;;;;;;4985669;28;20461;-56
2021/12/04 13:19:52;;;;;;;3.60;1.10;;;10.40;99.90;;;;;;4985307;28;20844;-56
2021/12/04 13:22:21;;;;;;;3.78;0.80;;;10.40;99.90;;;;;;4987384;28;20838;-54
2021/12/04 13:24:49;;;;;;;3.42;0.70;;;10.30;99.90;;;;;;4987118;28;20408;-56
2021/12/04 13:29:44;;;;;;;3.53;0.80;;;10.30;99.90;;;;;;4989527;28;20406;-53
2021/12/04 13:32:13;;;;;;;3.95;0.80;;;10.20;99.90;;;;;;4988011;28;20395;-55
2021/12/04 13:34:40;;;;;;;3.70;0.90;;;10.20;99.90;;;;;;4989632;28;20557;-54
2021/12/04 13:37:07;;;;;;;3.38;0.80;;;10.20;99.90;;;;;;4988191;28;20503;-55
2021/12/04 13:39:35;;;;;;;3.20;0.80;;;10.20;99.90;;;;;;4987590;28;20406;-54
2021/12/04 13:42:02;;;;;;;4.40;1.05;;;10.20;99.90;;;;;;4988055;28;20406;-55
2021/12/04 13:44:29;;;;;;;3.63;1.10;;;10.20;99.90;;;;;;4988689;28;20548;-55
2021/12/04 13:47:00;;;;;;;4.50;1.90;;;10.30;99.90;;;;;;4988367;28;20409;-54
2021/12/04 13:49:33;;;;;;;5.60;2.40;;;10.30;99.90;;;;;;4978074;28;20410;-54
2021/12/04 13:52:09;;;;;;;5.75;1.60;;;10.10;99.90;;;;;;4977877;28;20639;-54
2021/12/04 13:54:46;;;;;;;3.97;1.20;;;10.10;99.90;;;;;;4977096;28;20401;-54
2021/12/04 13:57:13;;;;;;;4.00;0.95;;;10.10;99.90;;;;;;4989808;28;20421;-54
2021/12/04 13:59:40;;;;;;;4.53;1.40;;;10.10;99.90;;;;;;4976559;28;20395;-54
2021/12/04 14:02:06;;;;;;;5.80;1.90;;;10.10;99.90;;;;;;4990162;28;20473;-55
2021/12/04 14:04:33;;;;;;;4.18;1.10;;;10.00;99.90;;;;;;4986838;28;20416;-55
2021/12/04 14:07:02;;;;;;;3.50;1.00;;;9.90;99.90;;;;;;4990612;28;20387;-54
2021/12/04 14:09:34;;;;;;;3.58;0.80;;;9.90;99.90;;;;;;4989820;28;20386;-54
2021/12/04 14:12:00;;;;;;;4.80;0.90;;;9.80;99.90;;;;;;4990363;28;20391;-54
2021/12/04 14:14:34;;;;;;;3.90;0.90;;;9.80;99.90;;;;;;5126526;27;20356;-54
2021/12/04 14:17:09;;;;;;;3.70;0.90;;;9.80;99.90;;;;;;5127722;27;20482;-54
2021/12/04 14:19:36;;;;;;;3.70;0.93;;;9.80;99.90;;;;;;5127139;28;20409;-53
2021/12/04 14:22:13;;;;;;;4.00;0.80;;;9.70;99.90;;;;;;5127109;28;20379;-54
2021/12/04 14:24:47;;;;;;;3.30;0.90;;;9.70;99.90;;;;;;5126133;28;20637;-54
2021/12/04 14:27:17;;;;;;;5.13;1.90;;;9.70;99.90;;;;;;5127202;28;20391;-55
2021/12/04 14:29:48;;;;;;;3.80;0.90;;;9.70;99.90;;;;;;5123852;28;20382;-54
2021/12/04 14:32:16;;;;;;;3.75;1.00;;;9.70;99.90;;;;;;5126528;27;20438;-54
2021/12/04 14:34:42;;;;;;;4.18;1.00;;;9.60;99.90;;;;;;5125767;28;20423;-55
2021/12/04 14:37:16;;;;;;;5.50;1.20;;;9.60;99.90;;;;;;5126700;27;20372;-55
2021/12/04 14:39:45;;;;;;;4.80;1.30;;;9.60;99.90;;;;;;5125179;28;20383;-54
2021/12/04 14:42:23;;;;;;;5.15;1.00;;;9.60;99.90;;;;;;5126441;28;20849;-55
2021/12/04 14:44:53;;;;;;;4.30;1.00;;;9.70;99.90;;;;;;5124583;28;20857;-54
2021/12/04 14:47:20;;;;;;;4.17;1.43;;;9.60;99.90;;;;;;5126449;28;20407;-55
2021/12/04 14:49:48;;;;;;;4.03;1.00;;;9.50;99.90;;;;;;5123559;28;20379;-55
2021/12/04 14:52:22;;;;;;;6.95;2.97;;;9.40;99.90;;;;;;5126555;28;20384;-55
2021/12/04 14:54:50;;;;;;;5.83;2.70;;;9.40;99.90;;;;;;5123790;28;20749;-56
2021/12/04 14:57:22;;;;;;;5.10;1.30;;;9.40;99.90;;;;;;5126667;28;20584;-55
2021/12/04 15:00:09;;;;;;;15.45;8.52;;;9.50;99.90;;;;;;5125936;28;20372;-54
2021/12/04 15:02:35;;;;;;;6.50;2.85;;;9.50;99.90;;;;;;5122230;28;20853;-55
2021/12/04 15:05:02;;;;;;;4.90;1.60;;;9.60;99.90;;;;;;5127313;27;20376;-54
2021/12/04 15:07:32;;;;;;;5.30;1.70;;;9.50;99.90;;;;;;5125293;28;20380;-54
2021/12/04 15:09:58;;;;;;;4.85;1.60;;;9.50;99.90;;;;;;5128267;27;20383;-54
2021/12/04 15:12:35;;;;;;;6.30;3.35;;;9.60;99.90;;;;;;5126477;27;20910;-59
2021/12/04 15:15:07;;;;;;;6.10;1.50;;;9.60;99.90;;;;;;5125750;28;20459;-54
2021/12/04 15:17:35;;;;;;;5.63;1.80;;;9.60;99.90;;;;;;5122943;27;20384;-54
2021/12/04 15:20:09;;;;;;;5.13;2.10;;;9.60;99.90;;;;;;5125576;28;20399;-53
2021/12/04 15:22:41;;;;;;;4.13;1.67;;;9.60;99.90;;;;;;5123961;28;20817;-53
2021/12/04 15:25:13;;;;;;;5.68;1.75;;;9.50;99.90;;;;;;5113482;28;20427;-52
2021/12/04 15:27:39;;;;;;;4.88;2.03;;;9.80;99.90;;;;;;5111430;28;20407;-55
2021/12/04 15:30:10;;;;;;;6.10;2.00;;;9.60;99.90;;;;;;5111914;28;20459;-53
2021/12/04 15:32:38;;;;;;;4.30;1.90;;;9.70;99.90;;;;;;5107538;28;20886;-54
2021/12/04 15:35:36;;;;;;;5.60;2.30;;;9.70;99.90;;;;;;5109726;28;20392;-54
2021/12/04 15:38:10;;;;;;;9.30;5.60;;;9.80;99.90;;;;;;5111075;28;20762;-53
2021/12/04 15:40:52;;;;;;;13.32;8.60;;;9.80;99.90;;;;;;5107690;28;20915;-54
2021/12/04 15:43:29;;;;;;;5.10;2.50;;;9.80;99.90;;;;;;5107289;28;20416;-54
2021/12/04 15:54:15;;;;;;;7.50;3.78;;;9.80;99.90;;;;;;5102366;27;20507;-55
2021/12/04 15:56:48;;;;;;;11.07;5.85;;;9.60;99.90;;;;;;5101302;28;20493;-56
2021/12/04 15:59:15;;;;;;;5.45;2.67;;;9.60;99.90;;;;;;5105743;28;20757;-55
2021/12/04 16:01:42;;;;;;;6.50;3.17;;;9.60;99.90;;;;;;5105425;28;20399;-57
2021/12/04 16:04:30;;;;;;;8.35;4.32;;;9.60;99.90;;;;;;5105112;28;20521;-57
2021/12/04 16:07:00;;;;;;;5.00;2.30;;;9.70;99.90;;;;;;5104098;28;20424;-57
2021/12/04 16:09:26;;;;;;;5.55;2.50;;;9.70;99.90;;;;;;5105276;28;20476;-61
2021/12/04 16:11:59;;;;;;;5.50;2.13;;;9.60;99.90;;;;;;5095280;28;20384;-55
2021/12/04 16:14:33;;;;;;;5.95;2.10;;;9.50;99.90;;;;;;5102805;28;20424;-60
2021/12/04 16:16:59;;;;;;;5.43;1.90;;;9.50;99.90;;;;;;5101935;28;20408;-58